createdAt,value
2022-09-22T00:01:32.022Z,11.90
2022-09-22T00:04:03.755Z,11.90
2022-09-22T00:06:34.072Z,11.90
2022-09-22T00:09:02.864Z,12.00
2022-09-22T00:11:39.000Z,12.00
2022-09-22T00:14:12.276Z,12.10
2022-09-22T00:16:42.744Z,12.00
2022-09-22T00:19:12.512Z,11.80
2022-09-22T00:21:40.767Z,11.80
2022-09-22T00:24:08.164Z,11.80
2022-09-22T00:26:36.384Z,11.80
2022-09-22T00:29:08.108Z,11.70
2022-09-22T00:31:37.385Z,11.70
2022-09-22T00:34:04.840Z,11.60
2022-09-22T00:36:31.764Z,11.60
2022-09-22T00:38:59.043Z,11.60
2022-09-22T00:41:30.804Z,11.50
2022-09-22T00:44:16.473Z,11.50
2022-09-22T00:46:45.779Z,11.60
2022-09-22T00:49:14.817Z,11.60
2022-09-22T00:51:44.783Z,11.50
2022-09-22T00:54:15.384Z,11.40
2022-09-22T00:57:05.443Z,11.40
2022-09-22T00:59:32.626Z,11.40
2022-09-22T01:01:59.573Z,11.40
2022-09-22T01:04:27.776Z,11.50
2022-09-22T01:06:56.607Z,11.50
2022-09-22T01:09:24.081Z,11.50
2022-09-22T01:11:51.081Z,11.60
2022-09-22T01:14:51.697Z,11.50
2022-09-22T01:17:34.620Z,11.60
2022-09-22T01:20:16.504Z,11.60
2022-09-22T01:22:49.568Z,11.70
2022-09-22T01:25:53.953Z,11.70
2022-09-22T01:28:54.254Z,11.70
2022-09-22T01:31:33.941Z,11.70
2022-09-22T01:34:16.356Z,11.70
2022-09-22T01:37:15.667Z,11.70
2022-09-22T01:39:51.294Z,11.80
2022-09-22T01:42:44.421Z,11.70
2022-09-22T01:45:14.230Z,11.70
2022-09-22T01:47:49.670Z,11.70
2022-09-22T01:50:39.513Z,11.70
2022-09-22T01:53:11.637Z,11.70
2022-09-22T01:55:40.721Z,11.80
2022-09-22T01:58:12.715Z,11.80
2022-09-22T02:00:44.112Z,11.80
2022-09-22T02:03:27.201Z,11.70
2022-09-22T02:06:11.615Z,11.60
2022-09-22T02:08:53.421Z,11.60
2022-09-22T02:11:21.427Z,11.60
2022-09-22T02:13:51.123Z,11.60
2022-09-22T02:16:21.684Z,11.60
2022-09-22T02:19:19.001Z,11.60
2022-09-22T02:21:48.153Z,11.60
2022-09-22T02:24:43.968Z,11.60
2022-09-22T02:27:14.633Z,11.50
2022-09-22T02:29:46.929Z,11.50
2022-09-22T02:32:17.438Z,11.50
2022-09-22T02:34:46.032Z,11.50
2022-09-22T02:37:28.133Z,11.50
2022-09-22T02:40:26.860Z,11.50
2022-09-22T02:43:08.164Z,11.50
2022-09-22T02:45:48.361Z,11.60
2022-09-22T02:48:40.410Z,11.60
2022-09-22T02:51:07.908Z,11.60
2022-09-22T02:53:35.684Z,11.50
2022-09-22T02:56:04.262Z,11.50
2022-09-22T02:58:31.129Z,11.50
2022-09-22T03:00:59.995Z,11.40
2022-09-22T03:03:26.977Z,11.40
2022-09-22T03:05:54.214Z,11.30
2022-09-22T03:08:21.171Z,11.30
2022-09-22T03:10:48.970Z,11.30
2022-09-22T03:13:17.224Z,11.40
2022-09-22T03:15:47.008Z,11.40
2022-09-22T03:18:14.692Z,11.30
2022-09-22T03:20:41.808Z,11.30
2022-09-22T03:23:08.962Z,11.30
2022-09-22T03:25:35.943Z,11.40
2022-09-22T03:28:03.006Z,11.30
2022-09-22T03:30:29.924Z,11.40
2022-09-22T03:32:58.933Z,11.30
2022-09-22T03:35:26.062Z,11.30
2022-09-22T03:37:53.887Z,11.20
2022-09-22T03:40:22.696Z,11.20
2022-09-22T03:42:51.268Z,11.20
2022-09-22T03:45:20.862Z,11.20
2022-09-22T03:47:47.831Z,11.20
2022-09-22T03:50:14.704Z,11.20
2022-09-22T03:52:44.990Z,11.00
2022-09-22T03:55:12.670Z,11.00
2022-09-22T03:57:41.379Z,10.90
2022-09-22T04:00:10.041Z,10.80
2022-09-22T04:02:41.789Z,10.80
2022-09-22T04:05:09.662Z,10.70
2022-09-22T04:07:38.415Z,10.70
2022-09-22T04:10:05.692Z,10.70
2022-09-22T04:12:32.467Z,10.70
2022-09-22T04:14:59.339Z,10.60
2022-09-22T04:17:28.198Z,10.60
2022-09-22T04:19:55.328Z,10.50
2022-09-22T04:22:22.205Z,10.50
2022-09-22T04:24:49.117Z,10.60
2022-09-22T04:27:21.084Z,10.50
2022-09-22T04:29:48.677Z,10.40
2022-09-22T04:32:16.664Z,10.40
2022-09-22T04:34:43.473Z,10.30
2022-09-22T04:37:11.404Z,10.30
2022-09-22T04:39:38.518Z,10.30
2022-09-22T04:42:05.834Z,10.30
2022-09-22T04:44:35.106Z,10.30
2022-09-22T04:47:02.982Z,10.30
2022-09-22T04:49:29.897Z,10.30
2022-09-22T04:51:57.177Z,10.40
2022-09-22T04:54:24.027Z,10.20
2022-09-22T04:56:50.813Z,10.30
2022-09-22T04:59:17.633Z,10.30
2022-09-22T05:01:46.029Z,10.30
2022-09-22T05:04:13.029Z,10.30
2022-09-22T05:06:40.439Z,10.30
2022-09-22T05:09:08.165Z,10.40
2022-09-22T05:12:01.307Z,10.40
2022-09-22T05:14:29.602Z,10.30
2022-09-22T05:16:56.714Z,10.40
2022-09-22T05:19:23.809Z,10.40
2022-09-22T05:21:51.639Z,10.50
2022-09-22T05:24:18.418Z,10.50
2022-09-22T05:26:45.177Z,10.40
2022-09-22T05:29:13.302Z,10.50
2022-09-22T05:31:40.170Z,10.50
2022-09-22T05:34:07.054Z,10.50
2022-09-22T05:36:33.856Z,10.60
2022-09-22T05:39:00.727Z,10.60
2022-09-22T05:41:27.508Z,10.50
2022-09-22T05:43:55.521Z,10.60
2022-09-22T05:46:22.401Z,10.50
2022-09-22T05:48:54.762Z,10.60
2022-09-22T05:51:21.610Z,10.60
2022-09-22T05:53:49.386Z,10.60
2022-09-22T05:56:16.137Z,10.60
2022-09-22T05:58:47.933Z,10.70
2022-09-22T06:01:14.961Z,10.60
2022-09-22T06:03:45.750Z,10.70
2022-09-22T06:06:15.152Z,10.70
2022-09-22T06:08:47.760Z,10.80
2022-09-22T06:11:16.747Z,10.90
2022-09-22T06:13:44.621Z,10.80
2022-09-22T06:16:12.945Z,10.80
2022-09-22T06:18:40.727Z,10.90
2022-09-22T06:21:08.832Z,11.10
2022-09-22T06:23:38.306Z,11.20
2022-09-22T06:26:10.689Z,11.20
2022-09-22T06:28:37.639Z,11.30
2022-09-22T06:31:04.501Z,11.50
2022-09-22T06:33:31.422Z,11.50
2022-09-22T06:35:58.302Z,11.60
2022-09-22T06:38:26.123Z,11.60
2022-09-22T06:40:58.469Z,11.70
2022-09-22T06:43:25.275Z,11.70
2022-09-22T06:45:52.593Z,11.80
2022-09-22T06:48:23.767Z,11.90
2022-09-22T06:50:52.787Z,12.00
2022-09-22T06:53:21.270Z,12.10
2022-09-22T06:55:51.834Z,12.20
2022-09-22T06:58:22.163Z,12.20
2022-09-22T07:00:50.470Z,12.30
2022-09-22T07:03:20.566Z,12.30
2022-09-22T07:05:56.461Z,12.50
2022-09-22T07:08:25.715Z,12.50
2022-09-22T07:11:02.090Z,12.50
2022-09-22T07:13:30.679Z,12.50
2022-09-22T07:16:07.891Z,12.50
2022-09-22T07:18:42.239Z,12.60
2022-09-22T07:21:12.672Z,12.70
2022-09-22T07:23:41.244Z,12.70
2022-09-22T07:26:12.190Z,12.80
2022-09-22T07:28:40.613Z,12.80
2022-09-22T07:31:11.587Z,12.90
2022-09-22T07:33:40.633Z,12.90
2022-09-22T07:36:11.757Z,13.00
2022-09-22T07:38:40.156Z,13.10
2022-09-22T07:41:12.913Z,13.20
2022-09-22T07:43:42.249Z,13.30
2022-09-22T07:46:09.179Z,13.50
2022-09-22T07:48:54.919Z,13.70
2022-09-22T07:51:26.502Z,13.90
2022-09-22T07:54:02.706Z,14.10
2022-09-22T07:56:31.008Z,14.30
2022-09-22T07:58:57.997Z,14.60
2022-09-22T08:01:31.464Z,14.80
2022-09-22T08:03:59.377Z,14.90
2022-09-22T08:06:29.168Z,14.80
2022-09-22T08:09:04.990Z,14.90
2022-09-22T08:11:33.757Z,14.90
2022-09-22T08:14:12.497Z,15.00
2022-09-22T08:16:40.478Z,15.10
2022-09-22T08:19:12.933Z,15.10
2022-09-22T08:21:48.729Z,15.10
2022-09-22T08:24:22.871Z,15.20
2022-09-22T08:26:52.922Z,15.20
2022-09-22T08:29:21.404Z,15.30
2022-09-22T08:31:49.337Z,15.40
2022-09-22T08:34:16.930Z,15.40
2022-09-22T08:36:49.279Z,15.50
2022-09-22T08:39:17.691Z,15.70
2022-09-22T08:42:09.209Z,16.00
2022-09-22T08:44:46.484Z,16.10
2022-09-22T08:47:44.553Z,16.00
2022-09-22T08:50:41.068Z,16.20
2022-09-22T08:53:11.164Z,16.20
2022-09-22T08:55:43.131Z,16.20
2022-09-22T08:58:31.897Z,16.20
2022-09-22T09:01:13.789Z,16.20
2022-09-22T09:03:54.801Z,16.20
2022-09-22T09:06:41.320Z,16.20
2022-09-22T09:09:17.875Z,16.20
2022-09-22T09:11:50.532Z,16.40
2022-09-22T09:14:42.652Z,16.40
2022-09-22T09:17:39.722Z,16.30
2022-09-22T09:20:12.680Z,16.30
2022-09-22T09:22:48.823Z,16.40
2022-09-22T09:25:36.877Z,16.40
2022-09-22T09:28:22.025Z,16.40
2022-09-22T09:30:56.574Z,16.40
2022-09-22T09:33:26.227Z,16.50
2022-09-22T09:35:53.475Z,16.50
2022-09-22T09:38:33.209Z,16.50
2022-09-22T09:41:14.910Z,16.70
2022-09-22T09:43:45.654Z,16.90
2022-09-22T09:46:27.119Z,16.80
2022-09-22T09:49:09.930Z,16.80
2022-09-22T09:51:42.276Z,17.00
2022-09-22T09:54:16.707Z,17.10
2022-09-22T09:57:06.759Z,17.10
2022-09-22T10:00:02.836Z,17.10
2022-09-22T10:02:49.432Z,17.20
2022-09-22T10:05:16.308Z,17.20
2022-09-22T10:07:45.807Z,17.10
2022-09-22T10:10:29.036Z,17.20
2022-09-22T10:13:05.126Z,17.20
2022-09-22T10:15:37.753Z,17.20
2022-09-22T10:18:24.886Z,17.20
2022-09-22T10:21:23.266Z,17.20
2022-09-22T10:23:52.461Z,17.40
2022-09-22T10:26:55.150Z,17.60
2022-09-22T10:29:23.569Z,17.70
2022-09-22T10:32:00.651Z,17.90
2022-09-22T10:34:31.386Z,17.80
2022-09-22T10:37:01.044Z,17.60
2022-09-22T10:39:39.943Z,17.60
2022-09-22T10:42:25.733Z,17.70
2022-09-22T10:44:54.456Z,17.80
2022-09-22T10:47:26.758Z,18.00
2022-09-22T10:50:09.124Z,18.10
2022-09-22T10:52:55.871Z,18.40
2022-09-22T10:55:35.796Z,18.50
2022-09-22T10:58:10.620Z,18.80
2022-09-22T11:00:42.428Z,18.70
2022-09-22T11:03:53.168Z,18.80
2022-09-22T11:07:15.831Z,18.90
2022-09-22T11:10:22.171Z,19.80
2022-09-22T11:12:55.370Z,20.60
2022-09-22T11:15:45.723Z,20.90
2022-09-22T11:18:43.633Z,21.10
2022-09-22T11:21:52.446Z,22.00
2022-09-22T11:25:01.218Z,21.80
2022-09-22T11:27:51.390Z,21.50
2022-09-22T11:30:21.674Z,22.00
2022-09-22T11:32:58.445Z,21.70
2022-09-22T11:35:41.105Z,21.70
2022-09-22T11:38:23.971Z,22.40
2022-09-22T11:41:14.158Z,23.10
2022-09-22T11:44:24.589Z,23.50
2022-09-22T11:47:03.396Z,23.90
2022-09-22T11:49:48.993Z,22.90
2022-09-22T11:52:43.173Z,23.30
2022-09-22T11:55:37.467Z,23.00
2022-09-22T11:58:15.055Z,23.70
2022-09-22T12:00:56.098Z,23.70
2022-09-22T12:03:29.106Z,23.90
2022-09-22T12:06:05.853Z,24.20
2022-09-22T12:08:45.928Z,25.00
2022-09-22T12:11:17.781Z,24.00
2022-09-22T12:13:48.390Z,23.20
2022-09-22T12:16:30.966Z,23.20
2022-09-22T12:19:13.579Z,24.00
2022-09-22T12:22:01.656Z,24.90
2022-09-22T12:24:28.554Z,25.40
2022-09-22T12:26:55.428Z,25.90
2022-09-22T12:29:29.236Z,24.70
2022-09-22T12:31:59.294Z,24.10
2022-09-22T12:34:34.239Z,23.90
2022-09-22T12:37:14.281Z,24.90
2022-09-22T12:39:44.584Z,25.30
2022-09-22T12:42:20.951Z,24.90
2022-09-22T12:44:59.459Z,24.50
2022-09-22T12:47:33.560Z,23.90
2022-09-22T12:50:04.380Z,23.40
2022-09-22T12:53:11.990Z,23.70
2022-09-22T12:55:39.125Z,24.00
2022-09-22T12:58:21.451Z,24.30
2022-09-22T13:00:50.445Z,24.00
2022-09-22T13:03:27.715Z,25.00
2022-09-22T13:06:02.292Z,24.40
2022-09-22T13:08:31.902Z,23.50
2022-09-22T13:11:08.214Z,23.80
2022-09-22T13:13:36.811Z,24.40
2022-09-22T13:16:15.827Z,24.00
2022-09-22T13:18:58.925Z,24.10
2022-09-22T13:21:28.793Z,24.90
2022-09-22T13:23:55.868Z,25.30
2022-09-22T13:26:28.617Z,25.50
2022-09-22T13:29:11.767Z,25.40
2022-09-22T13:31:39.772Z,23.90
2022-09-22T13:34:29.248Z,22.80
2022-09-22T13:37:00.457Z,22.70
2022-09-22T13:39:32.149Z,22.20
2022-09-22T13:42:34.491Z,21.50
2022-09-22T13:45:03.927Z,21.00
2022-09-22T13:47:31.185Z,20.70
2022-09-22T13:50:04.690Z,20.30
2022-09-22T13:52:35.037Z,20.20
2022-09-22T13:55:26.319Z,20.10
2022-09-22T13:57:56.220Z,20.00
2022-09-22T14:01:08.762Z,20.10
2022-09-22T14:03:37.232Z,20.30
2022-09-22T14:06:08.815Z,20.50
2022-09-22T14:08:38.835Z,20.30
2022-09-22T14:11:15.778Z,20.40
2022-09-22T14:13:54.516Z,20.10
2022-09-22T14:16:46.680Z,20.20
2022-09-22T14:19:18.305Z,20.20
2022-09-22T14:22:03.609Z,20.20
2022-09-22T14:24:33.460Z,20.00
2022-09-22T14:27:04.448Z,19.80
2022-09-22T14:29:34.027Z,19.70
2022-09-22T14:32:33.284Z,19.70
2022-09-22T14:35:03.899Z,19.80
2022-09-22T14:37:36.647Z,19.70
2022-09-22T14:40:14.413Z,19.80
2022-09-22T14:42:41.315Z,20.00
2022-09-22T14:45:08.450Z,19.70
2022-09-22T14:47:40.438Z,19.90
2022-09-22T14:50:37.202Z,19.90
2022-09-22T14:53:22.906Z,20.10
2022-09-22T14:55:55.789Z,20.10
2022-09-22T14:58:25.415Z,20.10
2022-09-22T15:01:20.289Z,20.10
2022-09-22T15:04:11.576Z,19.90
2022-09-22T15:06:39.951Z,19.80
2022-09-22T15:09:13.197Z,19.70
2022-09-22T15:12:06.405Z,19.70
2022-09-22T15:14:42.393Z,19.70
2022-09-22T15:17:52.395Z,19.70
2022-09-22T15:20:24.892Z,19.80
2022-09-22T15:22:53.936Z,19.80
2022-09-22T15:25:22.018Z,19.90
2022-09-22T15:27:52.979Z,19.60
2022-09-22T15:30:21.863Z,19.50
2022-09-22T15:32:49.247Z,19.50
2022-09-22T15:35:18.365Z,19.40
2022-09-22T15:37:48.219Z,19.40
2022-09-22T15:40:21.275Z,19.60
2022-09-22T15:43:11.361Z,19.60
2022-09-22T15:45:38.002Z,19.60
2022-09-22T15:48:05.038Z,19.50
2022-09-22T15:50:32.368Z,19.40
2022-09-22T15:52:59.192Z,19.30
2022-09-22T15:55:26.089Z,19.20
2022-09-22T15:57:55.249Z,19.30
2022-09-22T16:00:28.593Z,19.30
2022-09-22T16:03:00.958Z,19.30
2022-09-22T16:05:29.439Z,19.30
2022-09-22T16:07:56.282Z,19.40
2022-09-22T16:10:24.317Z,19.40
2022-09-22T16:12:53.155Z,19.20
2022-09-22T16:15:20.174Z,19.10
2022-09-22T16:17:48.001Z,19.20
2022-09-22T16:20:17.013Z,19.10
2022-09-22T16:22:45.397Z,19.10
2022-09-22T16:25:15.599Z,19.00
2022-09-22T16:27:49.371Z,19.00
2022-09-22T16:30:16.776Z,19.00
2022-09-22T16:32:45.560Z,19.10
2022-09-22T16:35:13.398Z,19.00
2022-09-22T16:37:44.101Z,18.90
2022-09-22T16:40:14.601Z,18.80
2022-09-22T16:42:41.469Z,18.80
2022-09-22T16:45:08.484Z,18.90
2022-09-22T16:47:37.466Z,18.90
2022-09-22T16:50:04.712Z,18.80
2022-09-22T16:52:32.900Z,18.70
2022-09-22T16:54:59.803Z,18.60
2022-09-22T16:57:26.976Z,18.60
2022-09-22T16:59:54.020Z,18.60
2022-09-22T17:02:22.098Z,18.60
2022-09-22T17:04:49.035Z,18.50
2022-09-22T17:07:17.432Z,18.50
2022-09-22T17:09:46.715Z,18.50
2022-09-22T17:12:13.606Z,18.40
2022-09-22T17:14:43.537Z,18.40
2022-09-22T17:17:11.440Z,18.40
2022-09-22T17:19:38.424Z,18.30
2022-09-22T17:22:06.500Z,18.30
2022-09-22T17:24:35.457Z,18.20
2022-09-22T17:27:02.281Z,18.20
2022-09-22T17:29:32.486Z,18.10
2022-09-22T17:32:02.992Z,18.10
2022-09-22T17:34:35.179Z,18.00
2022-09-22T17:37:03.125Z,18.00
2022-09-22T17:39:31.841Z,17.90
2022-09-22T17:41:58.889Z,17.90
2022-09-22T17:44:28.529Z,17.80
2022-09-22T17:47:14.474Z,17.80
2022-09-22T17:49:59.767Z,17.80
2022-09-22T17:52:29.865Z,17.70
2022-09-22T17:55:11.096Z,17.60
2022-09-22T17:57:39.447Z,17.60
2022-09-22T18:00:13.321Z,17.60
2022-09-22T18:02:41.802Z,17.40
2022-09-22T18:05:12.471Z,17.40
2022-09-22T18:07:41.322Z,17.40
2022-09-22T18:10:16.590Z,17.30
2022-09-22T18:12:44.261Z,17.30
2022-09-22T18:15:15.042Z,17.20
2022-09-22T18:17:43.409Z,17.20
2022-09-22T18:20:13.324Z,17.20
2022-09-22T18:22:41.968Z,17.10
2022-09-22T18:25:10.469Z,17.00
2022-09-22T18:27:40.100Z,17.00
2022-09-22T18:30:08.638Z,17.00
2022-09-22T18:32:36.135Z,16.90
2022-09-22T18:35:03.145Z,16.80
2022-09-22T18:37:30.074Z,16.80
2022-09-22T18:39:57.042Z,16.70
2022-09-22T18:42:24.590Z,16.70
2022-09-22T18:44:53.226Z,16.50
2022-09-22T18:47:21.638Z,16.50
2022-09-22T18:49:51.651Z,16.50
2022-09-22T18:52:24.597Z,16.40
2022-09-22T18:54:53.949Z,16.40
2022-09-22T18:57:25.602Z,16.30
2022-09-22T18:59:59.797Z,16.20
2022-09-22T19:02:29.558Z,16.20
2022-09-22T19:04:59.790Z,16.20
2022-09-22T19:07:41.356Z,16.30
2022-09-22T19:10:12.772Z,16.20
2022-09-22T19:12:39.960Z,16.30
2022-09-22T19:15:16.751Z,16.30
2022-09-22T19:17:45.776Z,16.30
2022-09-22T19:20:17.312Z,16.30
2022-09-22T19:22:45.077Z,16.10
2022-09-22T19:25:43.217Z,16.00
2022-09-22T19:28:13.065Z,15.90
2022-09-22T19:30:40.178Z,15.80
2022-09-22T19:33:07.266Z,15.70
2022-09-22T19:35:39.040Z,15.70
2022-09-22T19:38:07.520Z,15.70
2022-09-22T19:40:35.042Z,15.70
2022-09-22T19:43:03.246Z,15.70
2022-09-22T19:45:30.414Z,15.50
2022-09-22T19:47:58.426Z,15.40
2022-09-22T19:50:29.392Z,15.40
2022-09-22T19:52:56.317Z,15.40
2022-09-22T19:55:24.161Z,15.30
2022-09-22T19:57:52.254Z,15.30
2022-09-22T20:00:26.157Z,15.20
2022-09-22T20:02:58.955Z,15.10
2022-09-22T20:05:37.015Z,15.10
2022-09-22T20:08:15.781Z,15.10
2022-09-22T20:10:44.089Z,15.20
2022-09-22T20:13:29.841Z,15.10
2022-09-22T20:15:57.779Z,15.00
2022-09-22T20:18:27.703Z,14.90
2022-09-22T20:20:56.006Z,15.00
2022-09-22T20:23:24.626Z,14.90
2022-09-22T20:25:51.988Z,14.90
2022-09-22T20:28:36.361Z,14.80
2022-09-22T20:31:10.245Z,14.80
2022-09-22T20:33:42.449Z,14.80
2022-09-22T20:36:13.563Z,14.70
2022-09-22T20:38:41.805Z,14.70
2022-09-22T20:41:21.758Z,14.70
2022-09-22T20:43:50.329Z,14.90
2022-09-22T20:46:18.902Z,14.90
2022-09-22T20:48:46.986Z,14.80
2022-09-22T20:51:14.939Z,14.70
2022-09-22T20:53:41.793Z,14.60
2022-09-22T20:56:11.655Z,14.50
2022-09-22T20:58:45.390Z,14.50
2022-09-22T21:01:14.865Z,14.50
2022-09-22T21:03:42.124Z,14.60
2022-09-22T21:06:11.180Z,14.50
2022-09-22T21:08:57.933Z,14.60
2022-09-22T21:11:25.371Z,14.60
2022-09-22T21:14:01.325Z,14.60
2022-09-22T21:16:29.940Z,14.60
2022-09-22T21:19:02.561Z,14.50
2022-09-22T21:21:31.568Z,14.50
2022-09-22T21:24:02.006Z,14.50
2022-09-22T21:26:30.932Z,14.40
2022-09-22T21:29:00.075Z,14.40
2022-09-22T21:31:27.900Z,14.50
2022-09-22T21:33:55.014Z,14.50
2022-09-22T21:36:23.432Z,14.60
2022-09-22T21:38:57.902Z,14.70
2022-09-22T21:41:28.582Z,14.70
2022-09-22T21:43:57.211Z,14.70
2022-09-22T21:46:26.851Z,14.60
2022-09-22T21:49:02.114Z,14.50
2022-09-22T21:51:34.381Z,14.50
2022-09-22T21:54:04.495Z,14.50
2022-09-22T21:56:33.794Z,14.40
2022-09-22T21:59:03.252Z,14.50
2022-09-22T22:01:32.658Z,14.50
2022-09-22T22:04:01.087Z,14.60
2022-09-22T22:06:31.689Z,14.50
2022-09-22T22:09:06.907Z,14.50
2022-09-22T22:11:37.572Z,14.50
2022-09-22T22:14:07.144Z,14.40
2022-09-22T22:16:37.877Z,14.20
2022-09-22T22:19:06.401Z,14.20
2022-09-22T22:21:34.118Z,14.10
2022-09-22T22:24:18.766Z,14.10
2022-09-22T22:26:51.379Z,14.10
2022-09-22T22:29:19.635Z,14.10
2022-09-22T22:31:49.212Z,14.20
2022-09-22T22:34:18.998Z,14.20
2022-09-22T22:36:52.845Z,14.10
2022-09-22T22:39:20.107Z,14.10
2022-09-22T22:41:50.685Z,13.90
2022-09-22T22:44:20.477Z,13.90
2022-09-22T22:46:47.727Z,14.00
2022-09-22T22:49:14.611Z,13.90
2022-09-22T22:51:44.673Z,14.00
2022-09-22T22:54:14.756Z,14.00
2022-09-22T22:56:44.318Z,14.00
2022-09-22T22:59:13.829Z,14.00
2022-09-22T23:01:43.962Z,13.80
2022-09-22T23:04:11.680Z,13.60
2022-09-22T23:06:43.949Z,13.60
2022-09-22T23:09:12.498Z,13.50
2022-09-22T23:11:44.087Z,13.40
2022-09-22T23:14:12.952Z,13.50
2022-09-22T23:17:15.653Z,13.60
2022-09-22T23:19:42.534Z,13.50
2022-09-22T23:22:10.294Z,13.40
2022-09-22T23:24:39.423Z,13.50
2022-09-22T23:27:07.313Z,13.60
2022-09-22T23:29:35.462Z,13.60
2022-09-22T23:32:02.966Z,13.50
2022-09-22T23:34:29.917Z,13.40
2022-09-22T23:36:57.792Z,13.30
2022-09-22T23:39:24.584Z,13.40
2022-09-22T23:41:52.438Z,13.40
2022-09-22T23:44:22.710Z,13.30
2022-09-22T23:46:50.646Z,13.20
2022-09-22T23:49:17.534Z,13.30
2022-09-22T23:51:44.436Z,13.40
2022-09-22T23:54:13.830Z,13.40
2022-09-22T23:56:41.882Z,13.40
2022-09-22T23:59:09.946Z,13.30
